createdAt,value
2018-08-28T00:09:02.903Z,17.90
2018-08-28T00:18:17.297Z,17.90
2018-08-28T00:20:55.976Z,17.90
2018-08-28T00:23:46.978Z,17.70
2018-08-28T00:26:40.058Z,17.70
2018-08-28T00:29:41.596Z,17.80
2018-08-28T00:38:36.067Z,17.70
2018-08-28T00:41:12.173Z,17.80
2018-08-28T00:43:48.140Z,17.70
2018-08-28T00:46:30.752Z,17.70
2018-08-28T00:49:08.579Z,17.70
2018-08-28T00:54:27.796Z,17.60
2018-08-28T00:57:03.717Z,17.60
2018-08-28T00:59:42.311Z,17.60
2018-08-28T01:02:29.754Z,17.60
2018-08-28T01:05:01.567Z,17.60
2018-08-28T01:07:37.561Z,17.60
2018-08-28T01:10:15.437Z,17.60
2018-08-28T01:12:53.430Z,17.60
2018-08-28T01:15:24.444Z,17.60
2018-08-28T01:18:03.325Z,17.70
2018-08-28T01:20:41.749Z,17.70
2018-08-28T01:23:20.649Z,17.70
2018-08-28T01:28:51.601Z,17.70
2018-08-28T01:31:34.531Z,17.70
2018-08-28T01:34:11.967Z,17.70
2018-08-28T01:36:43.422Z,17.60
2018-08-28T01:39:28.788Z,17.60
2018-08-28T01:42:01.109Z,17.60
2018-08-28T01:44:49.068Z,17.60
2018-08-28T01:47:33.842Z,17.60
2018-08-28T01:50:06.821Z,17.60
2018-08-28T01:52:49.453Z,17.60
2018-08-28T01:55:26.561Z,17.60
2018-08-28T01:58:02.422Z,17.50
2018-08-28T02:00:37.039Z,17.50
2018-08-28T02:03:07.244Z,17.50
2018-08-28T02:05:53.605Z,17.50
2018-08-28T02:08:33.754Z,17.40
2018-08-28T02:11:10.632Z,17.40
2018-08-28T02:21:05.272Z,17.40
2018-08-28T02:23:46.362Z,17.40
2018-08-28T02:26:36.112Z,17.30
2018-08-28T02:31:50.808Z,17.30
2018-08-28T02:34:35.289Z,17.40
2018-08-28T02:40:05.798Z,17.30
2018-08-28T02:42:41.809Z,17.30
2018-08-28T02:45:21.311Z,17.50
2018-08-28T02:47:57.741Z,17.30
2018-08-28T02:50:34.595Z,17.30
2018-08-28T02:53:09.404Z,17.30
2018-08-28T03:03:02.927Z,17.20
2018-08-28T03:05:34.517Z,17.20
2018-08-28T03:08:15.444Z,17.20
2018-08-28T03:10:56.153Z,17.20
2018-08-28T03:13:36.448Z,17.20
2018-08-28T03:19:05.540Z,17.10
2018-08-28T03:21:52.644Z,17.10
2018-08-28T03:24:25.653Z,17.10
2018-08-28T03:26:57.113Z,17.10
2018-08-28T03:29:31.893Z,17.00
2018-08-28T03:32:02.701Z,17.00
2018-08-28T03:34:37.622Z,17.00
2018-08-28T03:37:11.043Z,17.00
2018-08-28T03:40:17.972Z,16.90
2018-08-28T03:42:55.121Z,16.90
2018-08-28T03:45:31.107Z,16.90
2018-08-28T03:48:13.047Z,16.90
2018-08-28T03:50:51.520Z,16.90
2018-08-28T03:53:24.150Z,16.80
2018-08-28T03:56:16.765Z,16.90
2018-08-28T03:58:50.203Z,16.90
2018-08-28T04:01:26.897Z,16.80
2018-08-28T04:04:02.055Z,16.80
2018-08-28T04:06:47.646Z,16.90
2018-08-28T04:09:30.548Z,16.80
2018-08-28T04:12:15.379Z,16.80
2018-08-28T04:14:46.917Z,16.80
2018-08-28T04:17:46.424Z,16.80
2018-08-28T04:20:33.109Z,16.80
2018-08-28T04:23:24.756Z,16.80
2018-08-28T04:26:09.573Z,17.20
2018-08-28T04:28:47.639Z,17.60
2018-08-28T04:31:26.232Z,18.00
2018-08-28T04:33:58.883Z,18.50
2018-08-28T04:36:39.564Z,18.60
2018-08-28T04:39:14.930Z,18.50
2018-08-28T04:42:01.070Z,18.50
2018-08-28T04:44:39.992Z,18.40
2018-08-28T04:47:20.320Z,18.30
2018-08-28T04:49:59.973Z,18.40
2018-08-28T04:52:32.628Z,18.40
2018-08-28T04:55:07.616Z,18.30
2018-08-28T04:57:41.640Z,18.30
2018-08-28T05:00:19.986Z,18.20
2018-08-28T05:02:57.410Z,18.40
2018-08-28T05:05:32.919Z,18.50
2018-08-28T05:08:14.624Z,18.30
2018-08-28T05:11:23.891Z,18.30
2018-08-28T05:14:30.427Z,18.40
2018-08-28T05:17:08.724Z,18.50
2018-08-28T05:19:55.587Z,18.40
2018-08-28T05:22:43.674Z,18.30
2018-08-28T05:25:27.004Z,18.60
2018-08-28T05:28:39.942Z,18.30
2018-08-28T05:31:33.857Z,18.00
2018-08-28T05:34:28.503Z,17.80
2018-08-28T05:37:18.285Z,17.80
2018-08-28T05:40:01.470Z,17.50
2018-08-28T05:42:48.155Z,17.40
2018-08-28T05:45:38.226Z,17.50
2018-08-28T05:48:34.167Z,17.50
2018-08-28T05:51:08.393Z,17.40
2018-08-28T05:53:42.475Z,17.40
2018-08-28T05:56:22.663Z,17.50
2018-08-28T05:59:20.159Z,17.50
2018-08-28T06:02:11.130Z,17.50
2018-08-28T06:04:46.461Z,17.50
2018-08-28T06:07:38.955Z,17.50
2018-08-28T06:10:13.380Z,17.30
2018-08-28T06:12:57.309Z,17.60
2018-08-28T06:15:35.149Z,17.60
2018-08-28T06:18:25.316Z,17.70
2018-08-28T06:21:43.921Z,17.60
2018-08-28T06:24:28.227Z,17.60
2018-08-28T06:27:11.606Z,17.60
2018-08-28T06:29:54.067Z,17.70
2018-08-28T06:32:33.023Z,17.80
2018-08-28T06:35:04.927Z,17.90
2018-08-28T06:37:45.362Z,18.00
2018-08-28T06:40:44.960Z,18.00
2018-08-28T06:43:23.515Z,18.20
2018-08-28T06:46:10.265Z,18.20
2018-08-28T06:48:44.358Z,18.30
2018-08-28T06:57:30.955Z,18.40
2018-08-28T07:00:12.980Z,18.50
2018-08-28T07:03:07.984Z,18.60
2018-08-28T07:06:11.292Z,18.60
2018-08-28T07:08:53.593Z,18.70
2018-08-28T07:11:53.845Z,18.80
2018-08-28T07:14:30.535Z,19.00
2018-08-28T07:17:16.875Z,19.20
2018-08-28T07:19:52.376Z,19.40
2018-08-28T07:22:30.468Z,19.70
2018-08-28T07:25:07.993Z,19.80
2018-08-28T07:27:45.447Z,20.00
2018-08-28T07:30:38.834Z,20.20
2018-08-28T07:33:39.907Z,21.40
2018-08-28T07:36:18.750Z,22.60
2018-08-28T07:39:04.110Z,24.10
2018-08-28T07:41:52.615Z,24.90
2018-08-28T07:51:46.574Z,25.50
2018-08-28T07:57:14.137Z,28.20
2018-08-28T07:59:47.066Z,28.80
2018-08-28T08:02:34.513Z,28.90
2018-08-28T08:05:26.353Z,29.00
2018-08-28T08:08:09.245Z,29.10
2018-08-28T08:10:43.080Z,28.70
2018-08-28T08:31:47.185Z,28.50
2018-08-28T08:40:29.868Z,28.30
2018-08-28T08:43:22.486Z,28.40
2018-08-28T08:54:47.954Z,29.00
2018-08-28T08:57:28.510Z,28.80
2018-08-28T09:00:11.630Z,29.00
2018-08-28T09:02:53.102Z,29.10
2018-08-28T09:05:35.184Z,29.20
2018-08-28T09:08:27.813Z,29.50
2018-08-28T09:11:09.085Z,29.60
2018-08-28T09:13:56.381Z,29.50
2018-08-28T09:16:58.880Z,29.30
2018-08-28T09:19:58.596Z,29.60
2018-08-28T09:22:42.984Z,29.30
2018-08-28T09:25:30.701Z,28.50
2018-08-28T09:28:15.547Z,29.00
2018-08-28T09:31:03.483Z,29.90
2018-08-28T09:33:52.576Z,30.30
2018-08-28T09:36:31.395Z,30.70
2018-08-28T09:39:23.064Z,30.60
2018-08-28T09:42:10.613Z,30.60
2018-08-28T09:45:08.679Z,30.50
2018-08-28T09:48:06.234Z,29.20
2018-08-28T09:51:14.339Z,27.60
2018-08-28T09:57:02.891Z,27.00
2018-08-28T10:11:22.354Z,27.10
2018-08-28T10:14:32.637Z,27.60
2018-08-28T10:17:14.207Z,28.00
2018-08-28T10:19:54.563Z,28.20
2018-08-28T10:27:49.454Z,27.70
2018-08-28T10:44:23.324Z,27.30
2018-08-28T10:50:05.264Z,26.80
2018-08-28T10:52:51.866Z,27.20
2018-08-28T10:55:30.556Z,27.60
2018-08-28T10:58:14.671Z,27.20
2018-08-28T11:05:58.642Z,26.70
2018-08-28T11:08:44.127Z,26.30
2018-08-28T11:17:57.217Z,24.90
2018-08-28T11:23:54.966Z,25.00
2018-08-28T11:55:59.312Z,26.20
2018-08-28T11:58:45.147Z,25.20
2018-08-28T12:01:35.914Z,25.40
2018-08-28T12:35:06.176Z,24.80
2018-08-28T12:38:25.815Z,24.80
2018-08-28T12:44:49.039Z,25.20
2018-08-28T12:50:33.189Z,24.90
2018-08-28T12:53:26.575Z,24.80
2018-08-28T12:56:17.557Z,25.00
2018-08-28T12:59:21.405Z,25.30
2018-08-28T13:10:15.590Z,26.10
2018-08-28T13:13:06.441Z,26.30
2018-08-28T13:16:57.302Z,26.40
2018-08-28T13:19:55.190Z,26.40
2018-08-28T13:22:53.887Z,25.80
2018-08-28T13:29:07.022Z,25.40
2018-08-28T13:35:11.373Z,25.10
2018-08-28T13:38:05.987Z,25.30
2018-08-28T13:41:25.972Z,25.40
2018-08-28T13:44:29.650Z,25.20
2018-08-28T13:47:17.998Z,25.30
2018-08-28T13:53:25.281Z,24.70
2018-08-28T13:59:35.538Z,24.70
2018-08-28T14:08:31.869Z,24.90
2018-08-28T14:11:22.771Z,25.00
2018-08-28T14:14:31.475Z,24.60
2018-08-28T14:28:37.754Z,24.50
2018-08-28T14:31:24.804Z,24.70
2018-08-28T14:37:11.313Z,24.70
2018-08-28T14:39:54.586Z,24.60
2018-08-28T14:42:43.776Z,24.50
2018-08-28T14:48:27.898Z,24.40
2018-08-28T14:51:19.389Z,24.30
2018-08-28T14:54:10.660Z,24.20
2018-08-28T14:56:57.219Z,24.10
2018-08-28T14:59:52.345Z,24.10
2018-08-28T15:02:23.876Z,24.10
2018-08-28T15:21:12.270Z,24.20
2018-08-28T15:27:18.484Z,24.40
2018-08-28T15:30:10.911Z,24.50
2018-08-28T15:33:12.991Z,24.60
2018-08-28T15:38:57.972Z,24.30
2018-08-28T15:55:35.873Z,24.30
2018-08-28T15:58:29.615Z,24.30
2018-08-28T16:10:01.806Z,24.20
2018-08-28T16:15:52.792Z,24.20
2018-08-28T16:38:55.964Z,24.10
2018-08-28T17:00:41.493Z,24.00
2018-08-28T17:09:29.630Z,23.80
2018-08-28T17:25:08.871Z,23.80
2018-08-28T17:34:05.986Z,23.50
2018-08-28T17:39:56.505Z,23.30
2018-08-28T17:52:22.835Z,23.10
2018-08-28T18:01:20.982Z,22.90
2018-08-28T18:04:11.453Z,22.80
2018-08-28T18:06:59.085Z,22.70
2018-08-28T18:09:45.346Z,22.70
2018-08-28T18:15:20.624Z,22.50
2018-08-28T18:18:07.223Z,22.70
2018-08-28T18:20:58.711Z,22.70
2018-08-28T18:24:14.850Z,22.60
2018-08-28T18:27:08.309Z,22.50
2018-08-28T18:32:52.874Z,22.20
2018-08-28T18:35:43.577Z,22.20
2018-08-28T18:51:13.210Z,22.10
2018-08-28T18:53:56.288Z,22.00
2018-08-28T18:56:44.921Z,21.70
2018-08-28T18:59:26.462Z,21.60
2018-08-28T19:02:09.165Z,21.40
2018-08-28T19:37:43.512Z,21.50
2018-08-28T19:53:23.275Z,20.50
2018-08-28T19:56:03.463Z,20.50
2018-08-28T19:58:50.147Z,20.20
2018-08-28T20:01:46.678Z,20.20
2018-08-28T20:04:33.321Z,20.10
2018-08-28T20:07:18.179Z,20.10
2018-08-28T20:24:34.186Z,19.90
2018-08-28T20:27:13.146Z,19.90
2018-08-28T20:30:01.065Z,19.80
2018-08-28T20:32:48.450Z,19.80
2018-08-28T20:35:42.823Z,19.70
2018-08-28T20:38:34.322Z,19.70
2018-08-28T20:49:27.193Z,19.60
2018-08-28T20:52:18.011Z,19.50
2018-08-28T20:54:59.804Z,19.30
2018-08-28T20:58:13.350Z,19.30
2018-08-28T21:01:00.352Z,19.20
2018-08-28T21:12:40.850Z,19.10
2018-08-28T21:20:41.762Z,19.10
2018-08-28T21:23:25.633Z,18.90
2018-08-28T21:29:12.189Z,19.00
2018-08-28T21:58:59.872Z,19.00
2018-08-28T22:01:45.414Z,19.20
2018-08-28T22:04:32.024Z,19.30
2018-08-28T22:07:16.500Z,19.20
2018-08-28T22:19:51.784Z,19.20
2018-08-28T22:22:45.236Z,19.00
2018-08-28T22:25:26.094Z,19.10
2018-08-28T22:28:29.938Z,19.10
2018-08-28T22:31:11.863Z,19.10
2018-08-28T22:33:56.797Z,19.10
2018-08-28T22:36:52.099Z,18.80
2018-08-28T22:39:34.201Z,19.00
2018-08-28T22:42:23.007Z,19.00
2018-08-28T22:45:03.796Z,19.00
2018-08-28T22:47:48.944Z,19.00
2018-08-28T22:50:43.508Z,19.00
2018-08-28T22:53:22.738Z,19.00
2018-08-28T22:56:02.253Z,19.00
2018-08-28T22:58:43.072Z,18.80
2018-08-28T23:01:29.826Z,18.90
2018-08-28T23:04:06.251Z,18.90
2018-08-28T23:06:45.039Z,19.00
2018-08-28T23:09:23.856Z,19.00
2018-08-28T23:14:15.197Z,18.90
2018-08-28T23:16:50.433Z,18.90
2018-08-28T23:22:19.311Z,18.80
2018-08-28T23:24:53.185Z,18.70
2018-08-28T23:30:44.654Z,18.60
2018-08-28T23:33:22.616Z,18.50
2018-08-28T23:36:03.371Z,18.50
2018-08-28T23:39:00.781Z,18.50
2018-08-28T23:41:48.546Z,18.40
2018-08-28T23:44:44.681Z,18.40
2018-08-28T23:47:31.761Z,18.30
2018-08-28T23:50:20.460Z,18.30
